sensor_id;sensor_type;location;lat;lon;timestamp;pressure;altitude;pressure_sealevel;temperature;humidity
12775;BME280;6451;42.630;23.382;2022-12-18T00:02:20;95146.25;;;7.00;100.00
12775;BME280;6451;42.630;23.382;2022-12-18T00:04:49;95152.22;;;6.97;100.00
12775;BME280;6451;42.630;23.382;2022-12-18T00:07:16;95154.19;;;6.83;100.00
12775;BME280;6451;42.630;23.382;2022-12-18T00:09:43;95166.44;;;6.89;100.00
12775;BME280;6451;42.630;23.382;2022-12-18T00:12:10;95166.84;;;6.82;100.00
12775;BME280;6451;42.630;23.382;2022-12-18T00:14:37;95171.25;;;6.78;100.00
12775;BME280;6451;42.630;23.382;2022-12-18T00:17:03;95168.56;;;6.92;100.00
12775;BME280;6451;42.630;23.382;2022-12-18T00:19:30;95177.75;;;6.91;100.00
12775;BME280;6451;42.630;23.382;2022-12-18T00:21:59;95170.47;;;6.78;100.00
12775;BME280;6451;42.630;23.382;2022-12-18T00:24:25;95175.56;;;6.65;100.00
12775;BME280;6451;42.630;23.382;2022-12-18T00:26:52;95139.41;;;6.39;100.00
12775;BME280;6451;42.630;23.382;2022-12-18T00:29:19;95192.63;;;6.47;100.00
12775;BME280;6451;42.630;23.382;2022-12-18T00:31:46;95168.97;;;6.44;100.00
12775;BME280;6451;42.630;23.382;2022-12-18T00:34:13;95187.75;;;6.49;100.00
12775;BME280;6451;42.630;23.382;2022-12-18T00:36:40;95192.16;;;6.45;100.00
12775;BME280;6451;42.630;23.382;2022-12-18T00:39:10;95184.56;;;6.47;100.00
12775;BME280;6451;42.630;23.382;2022-12-18T00:41:37;95192.41;;;6.44;100.00
12775;BME280;6451;42.630;23.382;2022-12-18T00:44:22;95187.44;;;6.37;100.00
12775;BME280;6451;42.630;23.382;2022-12-18T00:46:49;95167.84;;;6.18;100.00
12775;BME280;6451;42.630;23.382;2022-12-18T00:49:18;95199.19;;;6.27;100.00
12775;BME280;6451;42.630;23.382;2022-12-18T00:51:45;95203.72;;;6.32;100.00
12775;BME280;6451;42.630;23.382;2022-12-18T00:54:13;95205.38;;;6.28;100.00
12775;BME280;6451;42.630;23.382;2022-12-18T00:56:40;95204.59;;;6.13;100.00
12775;BME280;6451;42.630;23.382;2022-12-18T00:59:07;95181.53;;;6.07;100.00
12775;BME280;6451;42.630;23.382;2022-12-18T01:01:34;95205.88;;;6.16;100.00
12775;BME280;6451;42.630;23.382;2022-12-18T01:04:02;95198.59;;;6.17;100.00
12775;BME280;6451;42.630;23.382;2022-12-18T01:06:29;95217.06;;;6.23;100.00
12775;BME280;6451;42.630;23.382;2022-12-18T01:08:56;95215.25;;;6.19;100.00
12775;BME280;6451;42.630;23.382;2022-12-18T01:11:25;95203.56;;;6.09;100.00
12775;BME280;6451;42.630;23.382;2022-12-18T01:13:53;95204.53;;;6.00;100.00
12775;BME280;6451;42.630;23.382;2022-12-18T01:16:20;95223.72;;;5.98;100.00
12775;BME280;6451;42.630;23.382;2022-12-18T01:18:47;95216.81;;;5.92;100.00
12775;BME280;6451;42.630;23.382;2022-12-18T01:21:15;95180.56;;;5.66;100.00
12775;BME280;6451;42.630;23.382;2022-12-18T01:23:45;95170.16;;;5.59;100.00
12775;BME280;6451;42.630;23.382;2022-12-18T01:26:14;95217.72;;;5.82;100.00
12775;BME280;6451;42.630;23.382;2022-12-18T01:28:43;95222.41;;;5.77;100.00
12775;BME280;6451;42.630;23.382;2022-12-18T01:31:15;95234.78;;;5.78;100.00
12775;BME280;6451;42.630;23.382;2022-12-18T01:33:42;95237.22;;;5.74;100.00
12775;BME280;6451;42.630;23.382;2022-12-18T01:36:15;95230.34;;;5.68;100.00
12775;BME280;6451;42.630;23.382;2022-12-18T01:38:43;95231.28;;;5.58;100.00
12775;BME280;6451;42.630;23.382;2022-12-18T01:41:10;95229.56;;;5.49;100.00
12775;BME280;6451;42.630;23.382;2022-12-18T01:43:47;95240.25;;;5.54;100.00
12775;BME280;6451;42.630;23.382;2022-12-18T01:46:15;95223.78;;;5.37;100.00
12775;BME280;6451;42.630;23.382;2022-12-18T01:48:46;95165.50;;;4.94;100.00
12775;BME280;6451;42.630;23.382;2022-12-18T01:51:13;95243.00;;;5.49;100.00
12775;BME280;6451;42.630;23.382;2022-12-18T01:53:42;95246.06;;;5.42;100.00
12775;BME280;6451;42.630;23.382;2022-12-18T01:56:13;95249.06;;;5.41;100.00
12775;BME280;6451;42.630;23.382;2022-12-18T01:58:50;95248.31;;;5.35;100.00
12775;BME280;6451;42.630;23.382;2022-12-18T02:01:21;95233.13;;;5.07;100.00
12775;BME280;6451;42.630;23.382;2022-12-18T02:03:49;95250.75;;;5.13;100.00
12775;BME280;6451;42.630;23.382;2022-12-18T02:06:20;95231.38;;;5.16;100.00
12775;BME280;6451;42.630;23.382;2022-12-18T02:09:01;95255.44;;;5.26;100.00
12775;BME280;6451;42.630;23.382;2022-12-18T02:11:39;95264.81;;;5.28;100.00
12775;BME280;6451;42.630;23.382;2022-12-18T02:14:17;95273.28;;;5.22;100.00
12775;BME280;6451;42.630;23.382;2022-12-18T02:16:51;95248.47;;;5.06;100.00
12775;BME280;6451;42.630;23.382;2022-12-18T02:19:41;95265.66;;;5.05;100.00
12775;BME280;6451;42.630;23.382;2022-12-18T02:22:25;95257.66;;;5.00;100.00
12775;BME280;6451;42.630;23.382;2022-12-18T02:24:59;95236.56;;;4.88;100.00
12775;BME280;6451;42.630;23.382;2022-12-18T02:27:30;95282.97;;;4.99;100.00
12775;BME280;6451;42.630;23.382;2022-12-18T02:29:59;95240.94;;;4.84;100.00
12775;BME280;6451;42.630;23.382;2022-12-18T02:32:30;95277.22;;;5.06;100.00
12775;BME280;6451;42.630;23.382;2022-12-18T02:34:59;95282.88;;;5.04;100.00
12775;BME280;6451;42.630;23.382;2022-12-18T02:37:27;95288.56;;;5.02;100.00
12775;BME280;6451;42.630;23.382;2022-12-18T02:39:58;95256.00;;;4.80;100.00
12775;BME280;6451;42.630;23.382;2022-12-18T02:42:26;95282.59;;;5.06;100.00
12775;BME280;6451;42.630;23.382;2022-12-18T02:44:56;95275.69;;;4.99;100.00
12775;BME280;6451;42.630;23.382;2022-12-18T02:47:27;95211.38;;;4.60;100.00
12775;BME280;6451;42.630;23.382;2022-12-18T02:50:03;95285.81;;;5.08;100.00
12775;BME280;6451;42.630;23.382;2022-12-18T02:52:39;95242.72;;;4.89;100.00
12775;BME280;6451;42.630;23.382;2022-12-18T02:55:18;95295.78;;;5.07;100.00
12775;BME280;6451;42.630;23.382;2022-12-18T02:57:51;95293.88;;;5.08;100.00
12775;BME280;6451;42.630;23.382;2022-12-18T03:00:24;95294.41;;;5.10;100.00
12775;BME280;6451;42.630;23.382;2022-12-18T03:02:59;95300.88;;;5.09;100.00
12775;BME280;6451;42.630;23.382;2022-12-18T03:05:31;95296.22;;;4.90;100.00
12775;BME280;6451;42.630;23.382;2022-12-18T03:08:03;95291.38;;;4.92;100.00
12775;BME280;6451;42.630;23.382;2022-12-18T03:10:37;95309.41;;;4.92;100.00
12775;BME280;6451;42.630;23.382;2022-12-18T03:13:08;95308.41;;;4.83;100.00
12775;BME280;6451;42.630;23.382;2022-12-18T03:15:41;95303.84;;;4.83;100.00
12775;BME280;6451;42.630;23.382;2022-12-18T03:18:13;95321.41;;;4.76;100.00
12775;BME280;6451;42.630;23.382;2022-12-18T03:20:44;95308.31;;;4.69;100.00
12775;BME280;6451;42.630;23.382;2022-12-18T03:23:16;95316.63;;;4.67;100.00
12775;BME280;6451;42.630;23.382;2022-12-18T03:25:45;95314.22;;;4.66;100.00
12775;BME280;6451;42.630;23.382;2022-12-18T03:28:15;95315.03;;;4.66;100.00
12775;BME280;6451;42.630;23.382;2022-12-18T03:30:45;95323.91;;;4.67;100.00
12775;BME280;6451;42.630;23.382;2022-12-18T03:33:17;95332.75;;;4.67;100.00
12775;BME280;6451;42.630;23.382;2022-12-18T03:35:46;95341.06;;;4.71;100.00
12775;BME280;6451;42.630;23.382;2022-12-18T03:38:14;95342.94;;;4.76;100.00
12775;BME280;6451;42.630;23.382;2022-12-18T03:40:48;95273.75;;;4.28;100.00
12775;BME280;6451;42.630;23.382;2022-12-18T03:43:20;95310.75;;;4.65;100.00
12775;BME280;6451;42.630;23.382;2022-12-18T03:46:01;95342.63;;;4.77;100.00
12775;BME280;6451;42.630;23.382;2022-12-18T03:48:31;95357.84;;;4.87;100.00
12775;BME280;6451;42.630;23.382;2022-12-18T03:51:04;95362.66;;;4.90;100.00
12775;BME280;6451;42.630;23.382;2022-12-18T03:53:35;95362.00;;;4.74;100.00
12775;BME280;6451;42.630;23.382;2022-12-18T03:56:06;95377.78;;;4.86;100.00
12775;BME280;6451;42.630;23.382;2022-12-18T03:58:35;95364.38;;;4.81;100.00
12775;BME280;6451;42.630;23.382;2022-12-18T04:01:07;95366.22;;;4.85;100.00
12775;BME280;6451;42.630;23.382;2022-12-18T04:03:36;95345.47;;;4.62;100.00
12775;BME280;6451;42.630;23.382;2022-12-18T04:06:05;95338.28;;;4.52;100.00
12775;BME280;6451;42.630;23.382;2022-12-18T04:08:34;95362.13;;;4.64;100.00
12775;BME280;6451;42.630;23.382;2022-12-18T04:11:02;95368.09;;;4.56;100.00
12775;BME280;6451;42.630;23.382;2022-12-18T04:13:32;95357.38;;;4.51;100.00
12775;BME280;6451;42.630;23.382;2022-12-18T04:15:59;95365.69;;;4.54;100.00
12775;BME280;6451;42.630;23.382;2022-12-18T04:18:28;95362.47;;;4.52;100.00
12775;BME280;6451;42.630;23.382;2022-12-18T04:20:55;95381.03;;;4.54;100.00
12775;BME280;6451;42.630;23.382;2022-12-18T04:23:21;95349.16;;;4.37;100.00
12775;BME280;6451;42.630;23.382;2022-12-18T04:25:48;95379.66;;;4.56;100.00
12775;BME280;6451;42.630;23.382;2022-12-18T04:28:15;95374.31;;;4.51;100.00
12775;BME280;6451;42.630;23.382;2022-12-18T04:30:42;95380.13;;;4.63;100.00
12775;BME280;6451;42.630;23.382;2022-12-18T04:33:10;95287.72;;;3.96;100.00
12775;BME280;6451;42.630;23.382;2022-12-18T04:35:38;95351.94;;;4.27;100.00
12775;BME280;6451;42.630;23.382;2022-12-18T04:38:06;95388.34;;;4.43;100.00
12775;BME280;6451;42.630;23.382;2022-12-18T04:40:33;95387.03;;;4.40;100.00
12775;BME280;6451;42.630;23.382;2022-12-18T04:43:00;95409.03;;;4.47;100.00
12775;BME280;6451;42.630;23.382;2022-12-18T04:45:27;95392.41;;;4.40;100.00
12775;BME280;6451;42.630;23.382;2022-12-18T04:47:54;95424.97;;;4.34;100.00
12775;BME280;6451;42.630;23.382;2022-12-18T04:50:23;95400.78;;;4.34;100.00
12775;BME280;6451;42.630;23.382;2022-12-18T04:52:51;95412.16;;;4.26;100.00
12775;BME280;6451;42.630;23.382;2022-12-18T04:55:19;95404.91;;;4.21;100.00
12775;BME280;6451;42.630;23.382;2022-12-18T04:57:46;95417.81;;;4.24;100.00
12775;BME280;6451;42.630;23.382;2022-12-18T05:00:14;95410.84;;;4.18;100.00
12775;BME280;6451;42.630;23.382;2022-12-18T05:02:41;95422.88;;;4.26;100.00
12775;BME280;6451;42.630;23.382;2022-12-18T05:05:08;95397.25;;;4.04;100.00
12775;BME280;6451;42.630;23.382;2022-12-18T05:07:35;95435.53;;;4.20;100.00
12775;BME280;6451;42.630;23.382;2022-12-18T05:10:11;95427.25;;;4.16;100.00
12775;BME280;6451;42.630;23.382;2022-12-18T05:12:38;95412.56;;;3.99;100.00
12775;BME280;6451;42.630;23.382;2022-12-18T05:15:24;95435.84;;;4.13;100.00
12775;BME280;6451;42.630;23.382;2022-12-18T05:17:51;95444.19;;;4.12;100.00
12775;BME280;6451;42.630;23.382;2022-12-18T05:20:18;95457.00;;;4.25;100.00
12775;BME280;6451;42.630;23.382;2022-12-18T05:22:45;95467.25;;;4.18;100.00
12775;BME280;6451;42.630;23.382;2022-12-18T05:25:13;95452.75;;;4.14;100.00
12775;BME280;6451;42.630;23.382;2022-12-18T05:27:40;95479.88;;;4.17;100.00
12775;BME280;6451;42.630;23.382;2022-12-18T05:30:08;95476.69;;;4.15;100.00
12775;BME280;6451;42.630;23.382;2022-12-18T05:32:35;95472.34;;;4.19;100.00
12775;BME280;6451;42.630;23.382;2022-12-18T05:35:02;95475.31;;;4.18;100.00
12775;BME280;6451;42.630;23.382;2022-12-18T05:37:29;95485.50;;;4.21;100.00
12775;BME280;6451;42.630;23.382;2022-12-18T05:39:56;95471.09;;;4.07;100.00
12775;BME280;6451;42.630;23.382;2022-12-18T05:42:24;95480.75;;;4.08;100.00
12775;BME280;6451;42.630;23.382;2022-12-18T05:44:51;95478.56;;;4.15;100.00
12775;BME280;6451;42.630;23.382;2022-12-18T05:47:19;95465.16;;;4.15;100.00
12775;BME280;6451;42.630;23.382;2022-12-18T05:49:46;95410.31;;;3.72;100.00
12775;BME280;6451;42.630;23.382;2022-12-18T05:52:13;95478.81;;;4.18;100.00
12775;BME280;6451;42.630;23.382;2022-12-18T05:54:40;95472.56;;;4.28;100.00
12775;BME280;6451;42.630;23.382;2022-12-18T05:57:09;95493.03;;;4.24;100.00
12775;BME280;6451;42.630;23.382;2022-12-18T05:59:37;95485.84;;;4.09;100.00
12775;BME280;6451;42.630;23.382;2022-12-18T06:02:04;95488.81;;;4.08;100.00
12775;BME280;6451;42.630;23.382;2022-12-18T06:04:31;95496.59;;;4.09;100.00
12775;BME280;6451;42.630;23.382;2022-12-18T06:06:58;95502.19;;;4.18;100.00
12775;BME280;6451;42.630;23.382;2022-12-18T06:09:25;95498.94;;;4.21;100.00
12775;BME280;6451;42.630;23.382;2022-12-18T06:11:52;95507.31;;;4.14;100.00
12775;BME280;6451;42.630;23.382;2022-12-18T06:14:19;95483.75;;;4.01;100.00
12775;BME280;6451;42.630;23.382;2022-12-18T06:16:47;95505.88;;;4.27;100.00
12775;BME280;6451;42.630;23.382;2022-12-18T06:19:16;95513.16;;;4.22;100.00
12775;BME280;6451;42.630;23.382;2022-12-18T06:21:43;95514.00;;;4.22;100.00
12775;BME280;6451;42.630;23.382;2022-12-18T06:24:10;95512.13;;;4.17;100.00
12775;BME280;6451;42.630;23.382;2022-12-18T06:26:38;95458.91;;;3.70;100.00
12775;BME280;6451;42.630;23.382;2022-12-18T06:29:05;95525.63;;;4.07;100.00
12775;BME280;6451;42.630;23.382;2022-12-18T06:31:32;95532.00;;;4.16;100.00
12775;BME280;6451;42.630;23.382;2022-12-18T06:34:02;95525.03;;;4.15;100.00
12775;BME280;6451;42.630;23.382;2022-12-18T06:36:29;95525.88;;;4.06;100.00
12775;BME280;6451;42.630;23.382;2022-12-18T06:38:56;95539.56;;;4.14;100.00
12775;BME280;6451;42.630;23.382;2022-12-18T06:41:24;95525.63;;;4.02;100.00
12775;BME280;6451;42.630;23.382;2022-12-18T06:43:50;95544.09;;;4.14;100.00
12775;BME280;6451;42.630;23.382;2022-12-18T06:46:18;95488.38;;;3.85;100.00
12775;BME280;6451;42.630;23.382;2022-12-18T06:48:47;95543.56;;;4.12;100.00
12775;BME280;6451;42.630;23.382;2022-12-18T06:51:19;95557.53;;;4.14;100.00
12775;BME280;6451;42.630;23.382;2022-12-18T06:53:46;95528.31;;;3.97;100.00
12775;BME280;6451;42.630;23.382;2022-12-18T06:56:12;95542.81;;;4.01;100.00
12775;BME280;6451;42.630;23.382;2022-12-18T06:58:39;95551.09;;;4.15;100.00
12775;BME280;6451;42.630;23.382;2022-12-18T07:01:08;95572.09;;;4.03;100.00
12775;BME280;6451;42.630;23.382;2022-12-18T07:03:36;95550.03;;;4.06;100.00
12775;BME280;6451;42.630;23.382;2022-12-18T07:06:04;95502.72;;;3.60;100.00
12775;BME280;6451;42.630;23.382;2022-12-18T07:08:33;95427.72;;;3.15;100.00
12775;BME280;6451;42.630;23.382;2022-12-18T07:11:03;95562.66;;;4.05;100.00
12775;BME280;6451;42.630;23.382;2022-12-18T07:13:31;95574.47;;;4.09;100.00
12775;BME280;6451;42.630;23.382;2022-12-18T07:16:04;95563.41;;;4.21;100.00
12775;BME280;6451;42.630;23.382;2022-12-18T07:18:31;95534.22;;;4.04;100.00
12775;BME280;6451;42.630;23.382;2022-12-18T07:20:58;95569.56;;;4.32;100.00
12775;BME280;6451;42.630;23.382;2022-12-18T07:23:24;95557.75;;;4.28;100.00
12775;BME280;6451;42.630;23.382;2022-12-18T07:25:53;95570.06;;;4.34;100.00
12775;BME280;6451;42.630;23.382;2022-12-18T07:28:21;95577.09;;;4.30;100.00
12775;BME280;6451;42.630;23.382;2022-12-18T07:30:47;95573.03;;;4.32;100.00
12775;BME280;6451;42.630;23.382;2022-12-18T07:33:15;95585.97;;;4.25;100.00
12775;BME280;6451;42.630;23.382;2022-12-18T07:35:42;95581.97;;;4.23;100.00
12775;BME280;6451;42.630;23.382;2022-12-18T07:38:09;95572.59;;;4.15;100.00
12775;BME280;6451;42.630;23.382;2022-12-18T07:40:35;95585.97;;;4.20;100.00
12775;BME280;6451;42.630;23.382;2022-12-18T07:43:04;95594.03;;;4.20;100.00
12775;BME280;6451;42.630;23.382;2022-12-18T07:45:31;95602.66;;;4.22;100.00
12775;BME280;6451;42.630;23.382;2022-12-18T07:47:58;95596.19;;;4.23;100.00
12775;BME280;6451;42.630;23.382;2022-12-18T07:50:24;95521.19;;;3.72;100.00
12775;BME280;6451;42.630;23.382;2022-12-18T07:52:51;95589.50;;;4.15;100.00
12775;BME280;6451;42.630;23.382;2022-12-18T07:55:19;95616.94;;;4.07;100.00
12775;BME280;6451;42.630;23.382;2022-12-18T07:57:46;95610.19;;;4.10;100.00
12775;BME280;6451;42.630;23.382;2022-12-18T08:00:15;95603.75;;;4.06;100.00
12775;BME280;6451;42.630;23.382;2022-12-18T08:02:42;95598.38;;;4.06;100.00
12775;BME280;6451;42.630;23.382;2022-12-18T08:05:09;95594.13;;;4.00;100.00
12775;BME280;6451;42.630;23.382;2022-12-18T08:07:36;95617.19;;;4.06;100.00
12775;BME280;6451;42.630;23.382;2022-12-18T08:10:04;95632.78;;;4.04;100.00
12775;BME280;6451;42.630;23.382;2022-12-18T08:12:30;95636.81;;;4.01;100.00
12775;BME280;6451;42.630;23.382;2022-12-18T08:14:57;95648.13;;;3.93;100.00
12775;BME280;6451;42.630;23.382;2022-12-18T08:17:26;95621.28;;;3.83;100.00
12775;BME280;6451;42.630;23.382;2022-12-18T08:19:52;95642.75;;;3.93;100.00
12775;BME280;6451;42.630;23.382;2022-12-18T08:22:19;95644.06;;;3.90;100.00
12775;BME280;6451;42.630;23.382;2022-12-18T08:24:46;95654.28;;;3.88;100.00
12775;BME280;6451;42.630;23.382;2022-12-18T08:27:13;95654.03;;;3.85;100.00
12775;BME280;6451;42.630;23.382;2022-12-18T08:29:40;95667.47;;;3.85;100.00
12775;BME280;6451;42.630;23.382;2022-12-18T08:32:07;95646.81;;;3.70;100.00
12775;BME280;6451;42.630;23.382;2022-12-18T08:34:35;95661.00;;;3.81;100.00
12775;BME280;6451;42.630;23.382;2022-12-18T08:37:02;95662.38;;;3.83;100.00
12775;BME280;6451;42.630;23.382;2022-12-18T08:39:29;95664.75;;;3.90;100.00
12775;BME280;6451;42.630;23.382;2022-12-18T08:41:56;95644.91;;;3.81;100.00
12775;BME280;6451;42.630;23.382;2022-12-18T08:44:40;95660.72;;;3.98;100.00
12775;BME280;6451;42.630;23.382;2022-12-18T08:47:08;95658.03;;;4.03;100.00
12775;BME280;6451;42.630;23.382;2022-12-18T08:49:36;95656.41;;;4.02;100.00
12775;BME280;6451;42.630;23.382;2022-12-18T08:52:03;95637.13;;;3.84;100.00
12775;BME280;6451;42.630;23.382;2022-12-18T08:54:30;95658.56;;;4.05;100.00
12775;BME280;6451;42.630;23.382;2022-12-18T08:56:57;95648.66;;;3.95;100.00
12775;BME280;6451;42.630;23.382;2022-12-18T08:59:25;95654.25;;;3.99;100.00
12775;BME280;6451;42.630;23.382;2022-12-18T09:01:53;95648.38;;;3.97;100.00
12775;BME280;6451;42.630;23.382;2022-12-18T09:04:21;95663.91;;;4.05;100.00
12775;BME280;6451;42.630;23.382;2022-12-18T09:06:49;95656.41;;;4.07;100.00
12775;BME280;6451;42.630;23.382;2022-12-18T09:09:16;95660.44;;;4.09;100.00
12775;BME280;6451;42.630;23.382;2022-12-18T09:11:43;95649.41;;;4.06;100.00
12775;BME280;6451;42.630;23.382;2022-12-18T09:14:10;95637.91;;;3.95;100.00
12775;BME280;6451;42.630;23.382;2022-12-18T09:16:37;95650.50;;;4.10;100.00
12775;BME280;6451;42.630;23.382;2022-12-18T09:19:04;95637.31;;;4.18;100.00
12775;BME280;6451;42.630;23.382;2022-12-18T09:21:33;95654.44;;;4.33;100.00
12775;BME280;6451;42.630;23.382;2022-12-18T09:24:02;95655.53;;;4.32;100.00
12775;BME280;6451;42.630;23.382;2022-12-18T09:26:29;95634.13;;;3.96;100.00
12775;BME280;6451;42.630;23.382;2022-12-18T09:28:56;95658.78;;;4.24;100.00
12775;BME280;6451;42.630;23.382;2022-12-18T09:31:24;95662.78;;;4.31;100.00
12775;BME280;6451;42.630;23.382;2022-12-18T09:36:26;95646.72;;;4.06;100.00
12775;BME280;6451;42.630;23.382;2022-12-18T09:38:53;95657.72;;;4.25;100.00
12775;BME280;6451;42.630;23.382;2022-12-18T09:41:46;95666.81;;;4.34;100.00
12775;BME280;6451;42.630;23.382;2022-12-18T09:44:24;95667.31;;;4.41;100.00
12775;BME280;6451;42.630;23.382;2022-12-18T09:47:03;95587.16;;;3.94;100.00
12775;BME280;6451;42.630;23.382;2022-12-18T09:49:36;95657.72;;;4.25;100.00
12775;BME280;6451;42.630;23.382;2022-12-18T09:52:09;95651.81;;;4.17;100.00
12775;BME280;6451;42.630;23.382;2022-12-18T09:54:39;95641.03;;;4.33;100.00
12775;BME280;6451;42.630;23.382;2022-12-18T09:57:14;95575.09;;;3.91;100.00
12775;BME280;6451;42.630;23.382;2022-12-18T09:59:42;95649.31;;;4.41;100.00
12775;BME280;6451;42.630;23.382;2022-12-18T10:02:15;95659.50;;;4.50;100.00
12775;BME280;6451;42.630;23.382;2022-12-18T10:04:43;95647.66;;;4.56;100.00
12775;BME280;6451;42.630;23.382;2022-12-18T10:07:16;95655.44;;;4.57;100.00
12775;BME280;6451;42.630;23.382;2022-12-18T10:09:51;95653.03;;;4.51;100.00
12775;BME280;6451;42.630;23.382;2022-12-18T10:12:26;95639.28;;;4.57;100.00
12775;BME280;6451;42.630;23.382;2022-12-18T10:14:59;95655.50;;;4.42;100.00
12775;BME280;6451;42.630;23.382;2022-12-18T10:17:34;95494.97;;;3.33;100.00
12775;BME280;6451;42.630;23.382;2022-12-18T10:20:12;95663.53;;;4.47;100.00
12775;BME280;6451;42.630;23.382;2022-12-18T10:22:48;95660.88;;;4.42;100.00
12775;BME280;6451;42.630;23.382;2022-12-18T10:25:21;95623.63;;;4.05;100.00
12775;BME280;6451;42.630;23.382;2022-12-18T10:27:54;95643.50;;;4.09;100.00
12775;BME280;6451;42.630;23.382;2022-12-18T10:30:24;95663.88;;;4.25;100.00
12775;BME280;6451;42.630;23.382;2022-12-18T10:32:51;95655.84;;;4.15;100.00
12775;BME280;6451;42.630;23.382;2022-12-18T10:35:20;95641.38;;;4.01;100.00
12775;BME280;6451;42.630;23.382;2022-12-18T10:38:03;95620.78;;;3.76;100.00
12775;BME280;6451;42.630;23.382;2022-12-18T10:40:30;95665.78;;;4.19;100.00
12775;BME280;6451;42.630;23.382;2022-12-18T10:43:09;95645.13;;;4.10;100.00
12775;BME280;6451;42.630;23.382;2022-12-18T10:45:37;95648.81;;;4.34;100.00
12775;BME280;6451;42.630;23.382;2022-12-18T10:48:17;95629.47;;;4.27;100.00
12775;BME280;6451;42.630;23.382;2022-12-18T10:50:48;95621.41;;;4.27;100.00
12775;BME280;6451;42.630;23.382;2022-12-18T10:53:20;95548.28;;;3.76;100.00
12775;BME280;6451;42.630;23.382;2022-12-18T10:55:48;95653.88;;;4.46;100.00
12775;BME280;6451;42.630;23.382;2022-12-18T10:58:23;95647.47;;;4.32;100.00
12775;BME280;6451;42.630;23.382;2022-12-18T11:01:07;95649.59;;;4.45;100.00
12775;BME280;6451;42.630;23.382;2022-12-18T11:03:36;95628.22;;;4.04;100.00
12775;BME280;6451;42.630;23.382;2022-12-18T11:06:05;95635.97;;;4.11;100.00
12775;BME280;6451;42.630;23.382;2022-12-18T11:08:33;95656.91;;;4.19;100.00
12775;BME280;6451;42.630;23.382;2022-12-18T11:13:38;95654.78;;;4.16;100.00
12775;BME280;6451;42.630;23.382;2022-12-18T11:16:05;95658.00;;;4.13;100.00
12775;BME280;6451;42.630;23.382;2022-12-18T11:18:33;95643.78;;;3.97;100.00
12775;BME280;6451;42.630;23.382;2022-12-18T11:21:06;95567.91;;;3.51;100.00
12775;BME280;6451;42.630;23.382;2022-12-18T11:23:34;95651.53;;;4.14;100.00
12775;BME280;6451;42.630;23.382;2022-12-18T11:26:04;95608.66;;;3.88;100.00
12775;BME280;6451;42.630;23.382;2022-12-18T11:28:38;95647.47;;;4.22;100.00
12775;BME280;6451;42.630;23.382;2022-12-18T11:31:24;95657.44;;;4.26;100.00
12775;BME280;6451;42.630;23.382;2022-12-18T11:34:02;95656.91;;;4.24;100.00
12775;BME280;6451;42.630;23.382;2022-12-18T11:36:34;95663.31;;;4.33;100.00
12775;BME280;6451;42.630;23.382;2022-12-18T11:39:08;95657.19;;;4.23;100.00
12775;BME280;6451;42.630;23.382;2022-12-18T11:41:46;95662.00;;;4.31;100.00
12775;BME280;6451;42.630;23.382;2022-12-18T11:44:38;95655.22;;;4.43;100.00
12775;BME280;6451;42.630;23.382;2022-12-18T11:49:45;95605.91;;;4.04;100.00
12775;BME280;6451;42.630;23.382;2022-12-18T11:52:18;95673.50;;;4.36;100.00
12775;BME280;6451;42.630;23.382;2022-12-18T11:54:46;95666.25;;;4.37;100.00
12775;BME280;6451;42.630;23.382;2022-12-18T11:57:19;95666.78;;;4.39;100.00
12775;BME280;6451;42.630;23.382;2022-12-18T11:59:59;95661.38;;;4.49;100.00
12775;BME280;6451;42.630;23.382;2022-12-18T12:02:46;95657.91;;;4.43;100.00
12775;BME280;6451;42.630;23.382;2022-12-18T12:05:28;95657.38;;;4.46;100.00
12775;BME280;6451;42.630;23.382;2022-12-18T12:08:05;95655.25;;;4.38;100.00
12775;BME280;6451;42.630;23.382;2022-12-18T12:10:43;95677.00;;;4.37;100.00
12775;BME280;6451;42.630;23.382;2022-12-18T12:13:25;95668.69;;;4.38;100.00
12775;BME280;6451;42.630;23.382;2022-12-18T12:16:06;95652.91;;;4.16;100.00
12775;BME280;6451;42.630;23.382;2022-12-18T12:18:50;95666.00;;;4.28;100.00
12775;BME280;6451;42.630;23.382;2022-12-18T12:21:27;95663.56;;;4.42;100.00
12775;BME280;6451;42.630;23.382;2022-12-18T12:24:00;95492.31;;;3.33;100.00
12775;BME280;6451;42.630;23.382;2022-12-18T12:26:37;95648.81;;;4.29;100.00
12775;BME280;6451;42.630;23.382;2022-12-18T12:29:29;95645.31;;;4.34;100.00
12775;BME280;6451;42.630;23.382;2022-12-18T12:32:13;95638.88;;;4.30;100.00
12775;BME280;6451;42.630;23.382;2022-12-18T12:34:47;95665.97;;;4.43;100.00
12775;BME280;6451;42.630;23.382;2022-12-18T12:37:24;95679.09;;;4.50;100.00
12775;BME280;6451;42.630;23.382;2022-12-18T12:39:56;95672.91;;;4.55;100.00
12775;BME280;6451;42.630;23.382;2022-12-18T12:42:34;95658.13;;;4.52;100.00
12775;BME280;6451;42.630;23.382;2022-12-18T12:45:22;95587.41;;;4.02;100.00
12775;BME280;6451;42.630;23.382;2022-12-18T12:47:54;95673.97;;;4.59;100.00
12775;BME280;6451;42.630;23.382;2022-12-18T12:50:22;95671.50;;;4.67;100.00
12775;BME280;6451;42.630;23.382;2022-12-18T12:52:52;95675.84;;;4.63;100.00
12775;BME280;6451;42.630;23.382;2022-12-18T12:55:21;95661.59;;;4.58;100.00
12775;BME280;6451;42.630;23.382;2022-12-18T13:00:25;95672.13;;;4.44;100.00
12775;BME280;6451;42.630;23.382;2022-12-18T13:03:03;95694.69;;;4.53;100.00
12775;BME280;6451;42.630;23.382;2022-12-18T13:05:39;95683.94;;;4.53;100.00
12775;BME280;6451;42.630;23.382;2022-12-18T13:08:11;95707.59;;;4.56;100.00
12775;BME280;6451;42.630;23.382;2022-12-18T13:10:40;95705.19;;;4.50;100.00
12775;BME280;6451;42.630;23.382;2022-12-18T13:13:08;95710.03;;;4.53;100.00
12775;BME280;6451;42.630;23.382;2022-12-18T13:15:39;95710.50;;;4.60;100.00
12775;BME280;6451;42.630;23.382;2022-12-18T13:18:20;95669.72;;;4.42;100.00
12775;BME280;6451;42.630;23.382;2022-12-18T13:20:49;95709.47;;;4.61;100.00
12775;BME280;6451;42.630;23.382;2022-12-18T13:23:31;95679.44;;;4.38;100.00
12775;BME280;6451;42.630;23.382;2022-12-18T13:25:59;95662.50;;;4.33;100.00
12775;BME280;6451;42.630;23.382;2022-12-18T13:28:52;95712.69;;;4.58;100.00